Time;durP1;ratioP1;P1;durP2;ratioP2;P2;SDS_P1;SDS_P2;PMS_P1;PMS_P2;Temp;Humidity;BMP_temperature;BMP_pressure;BME280_temperature;BME280_humidity;BME280_pressure;Samples;Min_cycle;Max_cycle;Signal;HPM_P1;HPM_P2
2023/04/05 00:01:28;;;;;;;2.17;0.80;;;0.70;99.90;;;;;;5066271;28;20090;-83
2023/04/05 00:03:56;;;;;;;1.30;0.70;;;0.30;99.90;;;;;;5064512;28;20124;-83
2023/04/05 00:06:27;;;;;;;1.67;0.93;;;0.40;99.90;;;;;;5063454;28;20144;-83
2023/04/05 00:08:54;;;;;;;2.35;0.80;;;0.30;99.90;;;;;;5068944;28;20119;-83
2023/04/05 00:11:24;;;;;;;1.50;0.70;;;1.40;99.90;;;;;;5057550;28;20041;-82
2023/04/05 00:13:50;;;;;;;1.40;0.70;;;0.20;99.90;;;;;;5066890;28;20041;-83
2023/04/05 00:16:17;;;;;;;2.13;0.80;;;0.20;99.90;;;;;;5064219;28;20041;-82
2023/04/05 00:18:48;;;;;;;2.97;1.02;;;0.10;99.90;;;;;;5058856;28;20131;-83
2023/04/05 00:21:20;;;;;;;2.47;1.00;;;0.10;99.90;;;;;;5054976;28;20048;-83
2023/04/05 00:23:47;;;;;;;1.80;0.80;;;0.10;99.90;;;;;;5059834;28;20047;-83
2023/04/05 00:26:13;;;;;;;2.20;0.95;;;0.00;99.90;;;;;;5056345;28;20052;-82
2023/04/05 00:28:39;;;;;;;3.15;0.80;;;0.00;99.90;;;;;;5062837;28;20037;-83
2023/04/05 00:31:05;;;;;;;1.70;0.70;;;1.10;99.90;;;;;;5062582;28;20211;-83
2023/04/05 00:33:31;;;;;;;3.28;0.93;;;0.00;99.90;;;;;;5058645;28;20044;-83
2023/04/05 00:35:56;;;;;;;1.85;0.80;;;-0.10;99.90;;;;;;5064066;28;20067;-83
2023/04/05 00:38:22;;;;;;;2.15;0.90;;;-0.10;99.90;;;;;;5061756;28;20037;-82
2023/04/05 00:40:48;;;;;;;1.98;0.80;;;-0.10;99.90;;;;;;5062072;28;20045;-83
2023/04/05 00:43:14;;;;;;;1.70;0.80;;;-0.10;99.90;;;;;;5061855;28;20047;-82
2023/04/05 00:45:41;;;;;;;1.20;0.70;;;-0.20;99.90;;;;;;5065647;28;20029;-83
2023/04/05 00:48:07;;;;;;;2.50;0.95;;;0.60;99.90;;;;;;5090166;28;20041;-83
2023/04/05 00:50:33;;;;;;;1.58;0.73;;;-0.20;99.90;;;;;;5055890;28;20600;-83
2023/04/05 00:52:59;;;;;;;1.55;0.80;;;-0.30;99.90;;;;;;5065022;28;20047;-83
2023/04/05 00:55:26;;;;;;;1.52;0.80;;;-0.40;99.90;;;;;;5062834;28;20056;-83
2023/04/05 00:57:55;;;;;;;2.17;0.98;;;-0.30;99.90;;;;;;5052297;28;20084;-82
2023/04/05 01:00:21;;;;;;;2.35;1.00;;;-0.30;99.90;;;;;;5061875;28;20041;-83
2023/04/05 01:03:00;;;;;;;2.80;0.82;;;-0.10;99.90;;;;;;5063784;28;20052;-83
2023/04/05 01:05:52;;;;;;;2.22;0.90;;;-0.40;99.90;;;;;;5063839;28;20131;-83
2023/04/05 01:08:32;;;;;;;3.30;0.80;;;-0.40;99.90;;;;;;5058733;28;20045;-83
2023/04/05 01:11:04;;;;;;;2.25;0.90;;;-0.40;99.90;;;;;;5053915;28;20568;-83
2023/04/05 01:13:30;;;;;;;1.50;0.80;;;-0.50;99.90;;;;;;5061315;28;20045;-82
2023/04/05 01:15:55;;;;;;;2.10;0.73;;;-0.50;99.90;;;;;;5061454;28;20102;-83
2023/04/05 01:18:23;;;;;;;3.15;0.98;;;-0.50;99.90;;;;;;5061651;28;20397;-83
2023/04/05 01:20:55;;;;;;;2.83;1.02;;;-0.50;99.90;;;;;;5055014;28;20086;-84
2023/04/05 01:23:36;;;;;;;1.00;0.68;;;-0.60;99.90;;;;;;5055707;28;20045;-82
2023/04/05 01:26:32;;;;;;;3.47;1.00;;;-0.60;99.90;;;;;;5054843;28;20394;-82
2023/04/05 01:28:58;;;;;;;;;;;-0.60;99.90;;;;;;5055281;28;20041;-82
2023/04/05 01:31:42;;;;;;;1.80;0.90;;;-0.60;99.90;;;;;;5060326;28;19924;-84
2023/04/05 01:34:22;;;;;;;1.20;0.70;;;-0.60;99.90;;;;;;5055590;28;20462;-83
2023/04/05 01:37:00;;;;;;;1.83;0.90;;;-0.60;99.90;;;;;;5063180;28;20123;-82
2023/04/05 01:39:27;;;;;;;1.98;0.70;;;-0.70;99.90;;;;;;5064079;28;20047;-82
2023/04/05 01:41:58;;;;;;;1.33;0.63;;;-0.70;99.90;;;;;;5061564;28;20048;-84
2023/04/05 01:44:24;;;;;;;2.83;0.95;;;-0.70;99.90;;;;;;5060365;28;20048;-82
2023/04/05 01:46:50;;;;;;;2.72;0.80;;;-0.70;99.90;;;;;;5060687;28;20036;-83
2023/04/05 01:49:16;;;;;;;1.15;0.68;;;-0.10;99.90;;;;;;5061059;28;20120;-83
2023/04/05 01:51:41;;;;;;;1.25;0.70;;;0.00;99.90;;;;;;5061312;28;20419;-83
2023/04/05 01:54:08;;;;;;;1.92;0.80;;;-0.80;99.90;;;;;;5059575;28;20443;-82
2023/04/05 01:56:33;;;;;;;1.73;0.77;;;-0.80;99.90;;;;;;5066987;28;20045;-82
2023/04/05 01:58:59;;;;;;;2.45;0.80;;;-0.90;99.90;;;;;;5060460;28;20106;-83
2023/04/05 02:01:25;;;;;;;2.28;0.88;;;-0.60;99.90;;;;;;5059587;28;20497;-83
2023/04/05 02:03:51;;;;;;;2.10;0.82;;;-0.90;99.90;;;;;;5060117;28;20059;-83
2023/04/05 02:06:16;;;;;;;2.25;1.10;;;-0.90;99.90;;;;;;5060574;28;20087;-82
2023/04/05 02:08:42;;;;;;;2.03;0.90;;;0.10;99.90;;;;;;5066588;28;20078;-83
2023/04/05 02:11:08;;;;;;;2.75;0.85;;;-1.50;99.90;;;;;;5059202;28;20063;-83
2023/04/05 02:13:34;;;;;;;1.92;0.82;;;-0.90;99.90;;;;;;5060359;28;20049;-83
2023/04/05 02:15:59;;;;;;;1.52;0.88;;;0.00;99.90;;;;;;5060368;28;20135;-83
2023/04/05 02:18:30;;;;;;;1.98;0.90;;;-0.60;99.90;;;;;;5060589;28;20075;-82
2023/04/05 02:21:06;;;;;;;3.20;1.20;;;-1.10;99.90;;;;;;5060556;28;20131;-82
2023/04/05 02:23:33;;;;;;;2.40;0.82;;;-1.00;99.90;;;;;;5052475;28;20033;-82
2023/04/05 02:25:59;;;;;;;1.85;0.90;;;-1.00;99.90;;;;;;5059855;28;20053;-84
2023/04/05 02:28:25;;;;;;;2.05;0.93;;;-1.00;99.90;;;;;;5061702;28;20037;-82
2023/04/05 02:30:51;;;;;;;2.15;0.90;;;-1.10;99.90;;;;;;5055325;28;20110;-82
2023/04/05 02:33:17;;;;;;;2.35;1.00;;;-1.10;99.90;;;;;;5063497;28;20449;-82
2023/04/05 02:35:43;;;;;;;1.75;0.80;;;-1.10;99.90;;;;;;5063807;28;20040;-83
2023/04/05 02:38:08;;;;;;;3.17;1.10;;;-1.10;99.90;;;;;;5044397;28;20044;-82
2023/04/05 02:40:34;;;;;;;3.47;1.50;;;-1.20;99.90;;;;;;5062249;28;20036;-82
2023/04/05 02:43:00;;;;;;;2.38;1.00;;;-1.10;99.90;;;;;;5054715;28;20068;-82
2023/04/05 02:45:28;;;;;;;4.60;1.20;;;-1.10;99.90;;;;;;5062320;28;20508;-82
2023/04/05 02:47:54;;;;;;;3.15;1.25;;;-1.10;99.90;;;;;;5053675;28;20116;-83
2023/04/05 02:50:22;;;;;;;2.53;0.90;;;-1.10;99.90;;;;;;5063758;28;20093;-83
2023/04/05 02:52:48;;;;;;;2.92;1.15;;;-1.10;99.90;;;;;;5056009;28;20033;-81
2023/04/05 02:55:13;;;;;;;3.25;1.20;;;-1.10;99.90;;;;;;5061216;28;20135;-83
2023/04/05 02:57:40;;;;;;;4.43;1.40;;;-1.20;99.90;;;;;;5058533;28;20041;-84
2023/04/05 03:00:07;;;;;;;2.13;1.10;;;-0.50;99.90;;;;;;5058653;28;20053;-82
2023/04/05 03:02:33;;;;;;;2.65;1.10;;;-1.20;99.90;;;;;;5060627;28;20072;-85
2023/04/05 03:05:01;;;;;;;2.90;1.40;;;-1.30;99.90;;;;;;5066925;28;20570;-82
2023/04/05 03:07:28;;;;;;;2.33;1.13;;;-1.20;99.90;;;;;;5052098;28;20477;-81
2023/04/05 03:09:53;;;;;;;3.55;1.42;;;-1.30;99.90;;;;;;5059547;28;20049;-81
2023/04/05 03:12:19;;;;;;;1.83;0.90;;;-1.30;99.90;;;;;;5058501;28;20048;-83
2023/04/05 03:14:45;;;;;;;4.10;1.30;;;-1.30;99.90;;;;;;5058730;28;20045;-82
2023/04/05 03:17:11;;;;;;;2.78;1.10;;;-1.30;99.90;;;;;;5053549;28;20048;-81
2023/04/05 03:19:37;;;;;;;3.13;1.10;;;-1.30;99.90;;;;;;5065086;28;20473;-81
2023/04/05 03:22:03;;;;;;;2.47;1.17;;;-0.10;99.90;;;;;;5066377;28;20094;-85
2023/04/05 03:24:30;;;;;;;3.17;1.10;;;-1.30;99.90;;;;;;5062101;28;20043;-85
2023/04/05 03:26:55;;;;;;;2.10;1.20;;;-0.30;99.90;;;;;;5063648;28;20405;-81
2023/04/05 03:29:21;;;;;;;3.30;1.83;;;-1.30;99.90;;;;;;5070425;28;20044;-81
2023/04/05 03:31:48;;;;;;;3.28;1.55;;;-1.30;99.90;;;;;;5063436;28;20084;-82
2023/04/05 03:34:13;;;;;;;2.63;1.33;;;-1.50;99.90;;;;;;5064155;28;20520;-84
2023/04/05 03:36:42;;;;;;;2.92;1.35;;;-1.00;99.90;;;;;;5061052;28;20041;-82
2023/04/05 03:39:11;;;;;;;4.30;1.55;;;-1.40;99.90;;;;;;5063121;28;20045;-81
2023/04/05 03:41:39;;;;;;;4.63;1.38;;;-1.50;99.90;;;;;;5054673;28;20089;-81
2023/04/05 03:44:05;;;;;;;3.75;1.23;;;-1.50;99.90;;;;;;5063557;28;20053;-83
2023/04/05 03:46:31;;;;;;;3.78;1.50;;;-1.20;99.90;;;;;;5062688;28;20060;-81
2023/04/05 03:48:57;;;;;;;2.55;1.35;;;-1.50;99.90;;;;;;5062169;28;20041;-81
2023/04/05 03:51:23;;;;;;;2.28;1.10;;;-1.50;99.90;;;;;;5056773;28;20144;-81
2023/04/05 03:53:50;;;;;;;3.25;1.67;;;-1.60;99.90;;;;;;5068065;28;20467;-81
2023/04/05 03:56:16;;;;;;;2.90;1.40;;;-1.50;99.90;;;;;;5062499;28;20068;-82
2023/04/05 03:58:42;;;;;;;4.18;1.25;;;-1.40;99.90;;;;;;5059100;28;20036;-81
2023/04/05 04:01:08;;;;;;;3.17;1.40;;;-1.40;99.90;;;;;;5065022;28;20041;-81
2023/04/05 04:03:36;;;;;;;4.40;1.65;;;-1.40;99.90;;;;;;5057354;28;20055;-81
2023/04/05 04:06:03;;;;;;;3.22;1.33;;;-1.40;99.90;;;;;;5064729;28;20044;-81
2023/04/05 04:08:29;;;;;;;4.03;1.40;;;-1.40;99.90;;;;;;5064641;28;20093;-83
2023/04/05 04:10:55;;;;;;;3.05;1.30;;;-1.30;99.90;;;;;;5060443;28;20041;-82
2023/04/05 04:13:20;;;;;;;3.90;1.40;;;-1.40;99.90;;;;;;5064875;28;20044;-85
2023/04/05 04:15:46;;;;;;;3.83;1.40;;;-1.50;99.90;;;;;;5064637;28;20060;-82
2023/04/05 04:18:12;;;;;;;3.85;1.48;;;-1.50;99.90;;;;;;5066635;28;20123;-81
2023/04/05 04:20:38;;;;;;;5.45;1.58;;;-1.50;99.90;;;;;;5062795;28;20055;-83
2023/04/05 04:23:05;;;;;;;2.90;1.30;;;-1.60;99.90;;;;;;5060177;28;20045;-82
2023/04/05 04:25:31;;;;;;;3.45;1.50;;;-1.60;99.90;;;;;;5063613;28;20041;-84
2023/04/05 04:27:57;;;;;;;3.38;1.50;;;-1.60;99.90;;;;;;5060395;28;20114;-85
2023/04/05 04:30:23;;;;;;;3.20;1.40;;;-0.90;99.90;;;;;;5064259;28;20055;-83
2023/04/05 04:32:50;;;;;;;3.10;1.30;;;-1.00;99.90;;;;;;5062233;28;20041;-86
2023/04/05 04:35:24;;;;;;;2.30;1.10;;;-1.70;99.90;;;;;;5061959;28;20409;-84
2023/04/05 04:37:58;;;;;;;3.47;1.45;;;-1.70;99.90;;;;;;5050010;28;20178;-82
2023/04/05 04:40:39;;;;;;;3.20;1.48;;;-1.70;99.90;;;;;;5057161;28;20037;-84
2023/04/05 04:43:18;;;;;;;2.53;1.20;;;-1.70;99.90;;;;;;5062194;28;20049;-84
2023/04/05 04:45:48;;;;;;;2.72;1.13;;;-1.70;99.90;;;;;;5061142;28;20087;-83
2023/04/05 04:48:17;;;;;;;4.25;1.40;;;-1.90;99.90;;;;;;5065964;28;20052;-83
2023/04/05 04:50:44;;;;;;;3.55;1.15;;;-1.10;99.90;;;;;;5054521;28;20037;-83
2023/04/05 04:53:16;;;;;;;2.78;1.40;;;-2.00;99.90;;;;;;5060812;28;20041;-83
2023/04/05 04:55:42;;;;;;;4.38;2.00;;;-1.20;99.90;;;;;;5061907;28;20037;-86
2023/04/05 04:58:10;;;;;;;4.35;1.60;;;-1.90;99.90;;;;;;5057398;28;20163;-83
2023/04/05 05:00:42;;;;;;;4.05;1.45;;;-1.80;99.90;;;;;;5063548;28;20115;-83
2023/04/05 05:03:10;;;;;;;5.38;1.67;;;-1.00;99.90;;;;;;5057856;28;20574;-86
2023/04/05 05:05:44;;;;;;;3.95;1.95;;;-1.50;99.90;;;;;;5064110;28;20048;-83
2023/04/05 05:08:09;;;;;;;3.00;1.50;;;-0.70;99.90;;;;;;5057666;28;20381;-85
2023/04/05 05:10:35;;;;;;;3.08;1.90;;;-1.20;99.90;;;;;;5063140;28;20044;-82
2023/04/05 05:13:01;;;;;;;3.38;1.35;;;-1.40;99.90;;;;;;5057395;28;20105;-84
2023/04/05 05:15:26;;;;;;;4.40;1.70;;;-1.90;99.90;;;;;;5061777;28;20036;-83
2023/04/05 05:17:54;;;;;;;3.30;1.40;;;-0.90;99.90;;;;;;5064095;28;20094;-83
2023/04/05 05:20:21;;;;;;;4.70;1.48;;;-1.80;99.90;;;;;;5059009;28;20044;-84
2023/04/05 05:22:47;;;;;;;3.25;1.50;;;0.00;99.90;;;;;;5062008;28;20051;-84
2023/04/05 05:25:13;;;;;;;5.03;1.65;;;-1.90;99.90;;;;;;5062592;28;20504;-83
2023/04/05 05:27:40;;;;;;;5.25;1.63;;;-2.30;99.90;;;;;;5061204;28;20041;-84
2023/04/05 05:30:08;;;;;;;3.53;1.77;;;-1.90;99.90;;;;;;5045621;28;20086;-83
2023/04/05 05:32:33;;;;;;;3.83;1.10;;;-1.80;99.90;;;;;;5053059;28;20072;-83
2023/04/05 05:34:59;;;;;;;4.47;1.52;;;-1.80;99.90;;;;;;5061064;28;20898;-84
2023/04/05 05:37:32;;;;;;;5.28;1.60;;;-1.80;99.90;;;;;;5064610;28;20476;-84
2023/04/05 05:39:58;;;;;;;4.07;1.70;;;-1.60;99.90;;;;;;5062208;28;20041;-83
2023/04/05 05:42:25;;;;;;;4.22;1.80;;;-2.20;99.90;;;;;;5060979;28;20045;-85
2023/04/05 05:44:50;;;;;;;4.47;1.85;;;-1.70;99.90;;;;;;5060641;28;20489;-83
2023/04/05 05:47:16;;;;;;;3.00;1.77;;;-1.80;99.90;;;;;;5057934;28;20043;-84
2023/04/05 05:49:41;;;;;;;3.13;1.60;;;-1.80;99.90;;;;;;5063034;28;20040;-83
2023/04/05 05:52:07;;;;;;;3.67;1.83;;;-1.70;99.90;;;;;;5061366;28;20379;-83
2023/04/05 05:54:33;;;;;;;4.20;2.08;;;-1.70;99.90;;;;;;5060727;28;20528;-83
2023/04/05 05:56:59;;;;;;;5.93;2.00;;;-1.70;99.90;;;;;;5055725;28;20056;-84
2023/04/05 05:59:25;;;;;;;5.55;2.05;;;-1.70;99.90;;;;;;5059190;28;20051;-83
2023/04/05 06:01:51;;;;;;;4.18;2.10;;;-1.50;99.90;;;;;;5052582;28;20036;-83
2023/04/05 06:04:17;;;;;;;4.93;2.03;;;-1.20;99.90;;;;;;5060793;28;20049;-82
2023/04/05 06:06:45;;;;;;;4.95;2.00;;;-0.30;99.90;;;;;;5060829;28;20045;-83
2023/04/05 06:09:11;;;;;;;4.15;1.80;;;-1.40;99.90;;;;;;5061449;28;20095;-82
2023/04/05 06:11:37;;;;;;;3.72;1.95;;;-1.20;99.90;;;;;;5064694;28;20071;-83
2023/04/05 06:14:02;;;;;;;4.00;2.13;;;-1.10;99.90;;;;;;5062054;28;20404;-82
2023/04/05 06:16:29;;;;;;;3.97;2.17;;;-1.00;99.90;;;;;;5057500;28;20385;-82
2023/04/05 06:18:55;;;;;;;4.60;1.98;;;0.20;99.90;;;;;;5058520;28;20512;-82
2023/04/05 06:21:22;;;;;;;4.57;2.10;;;-0.80;99.90;;;;;;5063226;28;20040;-82
2023/04/05 06:23:47;;;;;;;6.15;2.33;;;-0.70;99.90;;;;;;5057083;28;20037;-81
2023/04/05 06:26:19;;;;;;;3.72;1.95;;;-0.50;99.90;;;;;;5061323;28;20098;-81
2023/04/05 06:28:46;;;;;;;4.10;2.28;;;-0.40;99.90;;;;;;5056422;28;20056;-82
2023/04/05 06:31:14;;;;;;;5.03;2.33;;;-0.30;99.90;;;;;;5062605;28;20041;-82
2023/04/05 06:33:40;;;;;;;3.35;1.77;;;-0.20;99.90;;;;;;5046811;28;20061;-82
2023/04/05 06:36:06;;;;;;;8.45;2.50;;;0.00;99.90;;;;;;5060993;28;20473;-82
2023/04/05 06:38:32;;;;;;;3.60;1.70;;;0.10;99.90;;;;;;5059584;28;20098;-82
2023/04/05 06:40:58;;;;;;;4.85;2.17;;;1.10;99.90;;;;;;5061158;28;20041;-82
2023/04/05 06:43:23;;;;;;;3.85;1.90;;;0.40;99.90;;;;;;5062698;28;20052;-82
2023/04/05 06:45:49;;;;;;;3.63;2.28;;;0.50;99.90;;;;;;5061897;28;20047;-82
2023/04/05 06:48:16;;;;;;;5.10;2.17;;;0.60;99.90;;;;;;5060377;28;20105;-85
2023/04/05 06:50:42;;;;;;;4.30;2.30;;;1.60;99.90;;;;;;5051253;28;20449;-82
2023/04/05 06:53:08;;;;;;;6.18;3.05;;;1.10;99.90;;;;;;5060290;28;20095;-82
2023/04/05 06:55:33;;;;;;;6.60;2.90;;;1.00;99.90;;;;;;5063787;28;20041;-82
2023/04/05 06:57:59;;;;;;;5.20;2.65;;;1.10;99.90;;;;;;5062644;28;20524;-82
2023/04/05 07:00:25;;;;;;;7.07;3.08;;;1.20;99.90;;;;;;5063767;28;20122;-84
2023/04/05 07:02:51;;;;;;;6.95;2.38;;;1.30;99.90;;;;;;5096920;28;20052;-84
2023/04/05 07:05:16;;;;;;;4.80;2.50;;;1.50;99.90;;;;;;5063726;28;20049;-84
2023/04/05 07:07:44;;;;;;;3.67;2.13;;;1.60;99.90;;;;;;5070044;28;20044;-84
2023/04/05 07:10:10;;;;;;;4.72;2.17;;;2.80;99.90;;;;;;5064082;28;20075;-83
2023/04/05 07:12:36;;;;;;;3.25;1.67;;;1.90;99.90;;;;;;5067188;28;20435;-83
2023/04/05 07:15:03;;;;;;;5.25;2.35;;;2.00;99.90;;;;;;5068461;28;20045;-83
2023/04/05 07:17:28;;;;;;;5.45;2.97;;;2.20;99.90;;;;;;5065767;28;20048;-84
2023/04/05 07:19:54;;;;;;;4.78;2.42;;;2.30;99.90;;;;;;5060444;28;20213;-84
2023/04/05 07:22:20;;;;;;;6.38;3.00;;;3.10;99.90;;;;;;5063617;28;20531;-82
2023/04/05 07:24:45;;;;;;;6.35;3.17;;;2.60;99.90;;;;;;5056220;28;20037;-83
2023/04/05 07:27:12;;;;;;;6.75;3.58;;;2.70;99.90;;;;;;5063754;28;20397;-84
2023/04/05 07:29:39;;;;;;;5.30;3.17;;;3.20;99.90;;;;;;5056253;28;20049;-82
2023/04/05 07:32:06;;;;;;;7.43;3.80;;;4.00;99.90;;;;;;5055063;28;20074;-83
2023/04/05 07:34:33;;;;;;;5.32;3.17;;;3.10;99.90;;;;;;5056652;28;20163;-82
2023/04/05 07:36:59;;;;;;;5.47;3.05;;;3.50;99.90;;;;;;5056195;28;20073;-83
2023/04/05 07:39:25;;;;;;;5.53;3.25;;;3.00;99.90;;;;;;5055012;28;20040;-82
2023/04/05 07:41:51;;;;;;;5.55;2.65;;;3.50;99.90;;;;;;5056078;28;20037;-82
2023/04/05 07:44:17;;;;;;;7.05;2.65;;;4.40;99.90;;;;;;5056143;28;20404;-82
2023/04/05 07:46:45;;;;;;;5.70;2.80;;;3.80;99.90;;;;;;5055984;28;20127;-82
2023/04/05 07:49:11;;;;;;;4.55;2.50;;;3.80;99.90;;;;;;5055817;28;20140;-82
2023/04/05 07:51:37;;;;;;;5.28;2.50;;;5.10;99.90;;;;;;5055866;28;20076;-82
2023/04/05 07:54:04;;;;;;;5.65;2.72;;;4.60;99.90;;;;;;5054745;28;20048;-83
2023/04/05 07:56:30;;;;;;;3.80;2.25;;;4.40;99.90;;;;;;5055760;28;20041;-82
2023/04/05 07:58:57;;;;;;;6.28;2.58;;;4.50;99.90;;;;;;5055459;28;20100;-82
2023/04/05 08:01:26;;;;;;;4.88;2.60;;;4.70;99.90;;;;;;5054244;28;20079;-84
2023/04/05 08:03:53;;;;;;;6.40;2.65;;;5.30;99.90;;;;;;5054540;28;20409;-82
2023/04/05 08:06:18;;;;;;;5.35;2.72;;;5.00;99.90;;;;;;5054228;28;20106;-82
2023/04/05 08:08:45;;;;;;;5.03;3.25;;;5.20;99.90;;;;;;5055625;28;20123;-82
2023/04/05 08:11:11;;;;;;;4.18;2.42;;;5.30;99.90;;;;;;5054792;28;20044;-83
2023/04/05 08:13:40;;;;;;;3.33;2.22;;;5.50;99.90;;;;;;5054060;28;20045;-82
2023/04/05 08:16:07;;;;;;;5.18;3.03;;;5.70;99.90;;;;;;5055376;28;20478;-82
2023/04/05 08:18:33;;;;;;;3.28;2.30;;;5.90;99.90;;;;;;5055328;28;20501;-82
2023/04/05 08:20:58;;;;;;;5.60;3.08;;;6.20;99.90;;;;;;5055539;28;20072;-83
2023/04/05 08:23:24;;;;;;;4.90;2.50;;;6.20;99.90;;;;;;5055468;28;20466;-83
2023/04/05 08:25:50;;;;;;;4.72;2.85;;;6.40;99.90;;;;;;5055398;28;20053;-83
2023/04/05 08:28:16;;;;;;;3.90;2.10;;;6.50;99.90;;;;;;5055855;28;20041;-83
2023/04/05 08:30:41;;;;;;;4.85;2.38;;;6.70;99.90;;;;;;5062072;28;20045;-84
2023/04/05 08:33:07;;;;;;;4.45;2.40;;;7.20;99.90;;;;;;5055016;28;20076;-83
2023/04/05 08:35:35;;;;;;;3.60;1.90;;;7.30;99.90;;;;;;5053967;28;20052;-83
2023/04/05 08:38:01;;;;;;;3.75;2.38;;;7.50;99.90;;;;;;5055119;28;20389;-83
2023/04/05 08:40:38;;;;;;;3.75;2.42;;;7.50;99.90;;;;;;5055254;28;20448;-82
2023/04/05 08:43:15;;;;;;;3.55;1.98;;;7.40;99.90;;;;;;5054945;28;20099;-82
2023/04/05 08:45:51;;;;;;;4.28;2.40;;;7.60;99.90;;;;;;5054772;28;20424;-82
2023/04/05 08:48:18;;;;;;;3.40;2.20;;;8.30;99.90;;;;;;5053453;28;20045;-83
2023/04/05 08:50:51;;;;;;;4.15;1.67;;;7.60;99.90;;;;;;5053378;28;20045;-83
2023/04/05 08:53:18;;;;;;;3.90;2.05;;;8.00;99.90;;;;;;5053545;28;20436;-83
2023/04/05 08:56:04;;;;;;;9.15;2.30;;;8.70;99.90;;;;;;5069964;28;20091;-83
2023/04/05 08:58:32;;;;;;;3.63;1.70;;;8.20;99.90;;;;;;5054078;28;20084;-83
2023/04/05 09:00:59;;;;;;;3.08;1.80;;;9.10;99.90;;;;;;5054464;28;20049;-83
2023/04/05 09:03:33;;;;;;;3.22;1.52;;;8.60;99.90;;;;;;5054520;28;20087;-83
2023/04/05 09:05:59;;;;;;;2.47;1.50;;;8.70;99.90;;;;;;5054232;28;20049;-83
2023/04/05 09:08:26;;;;;;;3.15;1.58;;;9.30;99.90;;;;;;5054453;28;20045;-84
2023/04/05 09:10:51;;;;;;;2.55;1.35;;;9.10;99.90;;;;;;5054408;28;20366;-83
2023/04/05 09:13:17;;;;;;;3.10;1.40;;;8.90;99.90;;;;;;5054122;28;20049;-82
2023/04/05 09:15:43;;;;;;;2.92;1.63;;;9.10;99.90;;;;;;5054393;28;20045;-84
2023/04/05 09:18:09;;;;;;;3.50;1.63;;;9.30;99.90;;;;;;5052437;28;20391;-83
2023/04/05 09:20:35;;;;;;;4.13;1.75;;;9.40;99.70;;;;;;5054099;28;20077;-83
2023/04/05 09:23:00;;;;;;;3.40;1.25;;;9.40;99.90;;;;;;5036283;28;20045;-83
2023/04/05 09:25:38;;;;;;;2.45;1.33;;;9.90;99.90;;;;;;5052755;28;20402;-83
2023/04/05 09:28:08;;;;;;;3.03;1.25;;;9.70;99.90;;;;;;5052768;28;20055;-83
2023/04/05 09:30:36;;;;;;;3.75;1.60;;;9.90;99.90;;;;;;5052560;28;20084;-83
2023/04/05 09:33:03;;;;;;;3.30;1.80;;;10.00;99.70;;;;;;5054074;28;20396;-84
2023/04/05 09:35:31;;;;;;;2.67;1.40;;;10.00;99.10;;;;;;5053770;28;20055;-84
2023/04/05 09:37:58;;;;;;;3.63;1.50;;;10.30;98.60;;;;;;5052762;28;20394;-83
2023/04/05 09:40:40;;;;;;;4.35;1.40;;;10.30;98.70;;;;;;5053731;28;20083;-83
2023/04/05 09:43:06;;;;;;;4.63;1.27;;;10.50;99.10;;;;;;5053677;28;20585;-83
2023/04/05 09:45:41;;;;;;;3.17;1.30;;;10.70;96.90;;;;;;5052919;28;20128;-83
2023/04/05 09:48:08;;;;;;;3.05;1.35;;;10.70;95.40;;;;;;5052503;28;20478;-83
2023/04/05 09:50:34;;;;;;;3.45;1.15;;;11.20;93.70;;;;;;5053566;28;20128;-83
2023/04/05 09:53:14;;;;;;;3.70;1.20;;;10.80;93.80;;;;;;5053549;28;20045;-83
2023/04/05 09:55:41;;;;;;;4.22;1.33;;;11.20;96.00;;;;;;5053446;28;20053;-84
2023/04/05 09:58:31;;;;;;;2.17;1.10;;;11.00;95.40;;;;;;5053551;28;20079;-84
2023/04/05 10:00:57;;;;;;;3.08;1.25;;;11.10;94.70;;;;;;5053139;28;20074;-83
2023/04/05 10:03:26;;;;;;;3.47;1.33;;;11.10;94.20;;;;;;5060278;28;20558;-84
2023/04/05 10:05:55;;;;;;;2.85;0.90;;;11.10;94.00;;;;;;5060829;28;20478;-83
2023/04/05 10:08:22;;;;;;;3.17;1.17;;;11.20;91.80;;;;;;5059520;28;20049;-84
2023/04/05 10:10:52;;;;;;;1.92;0.90;;;11.20;91.50;;;;;;5063335;28;20055;-83
2023/04/05 10:13:19;;;;;;;2.28;0.90;;;11.40;93.20;;;;;;5057472;28;20033;-84
2023/04/05 10:15:46;;;;;;;2.60;0.90;;;11.50;92.00;;;;;;5053722;28;20107;-85
2023/04/05 10:18:23;;;;;;;1.65;0.80;;;11.40;90.60;;;;;;5066231;28;20096;-84
2023/04/05 10:20:50;;;;;;;1.38;0.93;;;11.30;92.20;;;;;;5065502;28;20091;-82
2023/04/05 10:23:23;;;;;;;2.35;0.98;;;11.20;92.60;;;;;;5060333;28;20139;-83
2023/04/05 10:25:52;;;;;;;4.40;1.08;;;11.30;94.40;;;;;;5059002;28;20119;-84
2023/04/05 10:28:41;;;;;;;2.13;1.23;;;11.50;92.60;;;;;;5058659;28;20044;-83
2023/04/05 10:31:15;;;;;;;4.25;1.15;;;11.80;93.50;;;;;;5062260;28;21408;-84
2023/04/05 10:33:44;;;;;;;2.90;1.23;;;12.10;93.50;;;;;;5062395;28;20040;-83
2023/04/05 10:36:25;;;;;;;2.47;1.10;;;12.40;92.80;;;;;;5055166;28;20056;-83
2023/04/05 10:39:08;;;;;;;2.67;1.25;;;12.50;92.10;;;;;;5063426;28;20051;-84
2023/04/05 10:41:38;;;;;;;3.70;1.00;;;12.80;91.90;;;;;;5055607;28;20477;-83
2023/04/05 10:44:08;;;;;;;2.25;1.15;;;12.90;91.30;;;;;;5061479;28;20047;-84
2023/04/05 10:46:35;;;;;;;3.75;1.55;;;12.80;86.90;;;;;;5055844;28;20044;-83
2023/04/05 10:49:15;;;;;;;2.88;1.30;;;12.50;87.00;;;;;;5059845;28;20505;-84
2023/04/05 10:51:44;;;;;;;3.28;1.30;;;12.40;88.10;;;;;;5050511;28;20025;-84
2023/04/05 10:54:10;;;;;;;2.03;1.10;;;12.10;87.90;;;;;;5062699;28;20049;-83
2023/04/05 10:56:37;;;;;;;2.78;1.67;;;12.10;88.90;;;;;;5065639;28;20044;-84
2023/04/05 10:59:04;;;;;;;3.38;1.58;;;12.30;91.00;;;;;;5057803;28;20053;-83
2023/04/05 11:01:30;;;;;;;3.55;1.35;;;12.20;84.70;;;;;;5060149;28;20045;-84
2023/04/05 11:04:13;;;;;;;2.47;1.45;;;12.20;89.60;;;;;;5053715;28;20426;-85
2023/04/05 11:06:39;;;;;;;3.78;1.13;;;11.90;87.40;;;;;;5060651;28;20049;-85
2023/04/05 11:09:09;;;;;;;2.05;1.25;;;12.00;89.50;;;;;;5056387;28;20041;-85
2023/04/05 11:11:43;;;;;;;2.75;1.20;;;12.20;86.10;;;;;;5060121;28;20388;-84
2023/04/05 11:14:34;;;;;;;2.58;1.45;;;12.30;86.90;;;;;;5052026;28;20047;-85
2023/04/05 11:17:00;;;;;;;2.30;1.27;;;12.30;86.10;;;;;;5059608;28;20049;-84
2023/04/05 11:19:44;;;;;;;3.08;1.65;;;12.30;84.50;;;;;;5063351;28;20041;-86
2023/04/05 11:22:11;;;;;;;3.53;1.50;;;12.50;87.50;;;;;;5054721;28;20052;-83
2023/04/05 11:24:56;;;;;;;1.80;1.10;;;12.50;87.00;;;;;;5051784;28;20048;-84
2023/04/05 11:27:27;;;;;;;3.20;1.33;;;12.80;85.90;;;;;;5059775;28;20158;-84
2023/04/05 11:29:53;;;;;;;3.75;1.20;;;12.90;85.70;;;;;;5061110;28;20037;-83
2023/04/05 11:32:20;;;;;;;2.42;1.15;;;12.90;85.90;;;;;;5061415;28;20039;-84
2023/04/05 11:35:00;;;;;;;2.10;1.00;;;13.20;85.50;;;;;;5059421;28;20044;-85
2023/04/05 11:37:54;;;;;;;2.33;1.15;;;13.50;86.80;;;;;;5058396;28;20032;-84
2023/04/05 11:40:36;;;;;;;1.55;0.88;;;13.80;89.20;;;;;;5052921;28;20071;-84
2023/04/05 11:43:08;;;;;;;2.85;1.17;;;13.90;83.20;;;;;;5062000;28;20079;-83
2023/04/05 11:45:36;;;;;;;2.50;0.90;;;14.10;88.30;;;;;;5062487;28;20040;-84
2023/04/05 11:48:05;;;;;;;3.72;1.02;;;14.30;83.30;;;;;;5064960;28;20554;-83
2023/04/05 11:50:31;;;;;;;1.45;0.80;;;14.40;84.10;;;;;;5064876;28;20531;-84
2023/04/05 11:53:10;;;;;;;2.22;1.10;;;14.50;84.40;;;;;;5054879;28;20393;-84
2023/04/05 11:55:37;;;;;;;3.20;1.40;;;14.30;79.10;;;;;;5060882;28;20045;-84
2023/04/05 11:58:20;;;;;;;2.40;1.00;;;14.40;84.30;;;;;;5055417;28;20510;-84
2023/04/05 12:00:56;;;;;;;3.45;1.20;;;14.50;84.40;;;;;;5059951;28;20109;-83
2023/04/05 12:03:21;;;;;;;;;;;14.80;84.40;;;;;;5065936;28;20163;-84
2023/04/05 12:05:51;;;;;;;;;;;14.80;83.90;;;;;;5065466;28;19920;-83
2023/04/05 12:08:21;;;;;;;1.40;0.90;;;14.80;81.80;;;;;;5064152;28;19932;-84
2023/04/05 12:10:57;;;;;;;3.13;1.20;;;14.90;84.60;;;;;;5067748;28;20056;-85
2023/04/05 12:13:31;;;;;;;2.25;1.10;;;14.60;77.90;;;;;;5057884;28;20049;-88
2023/04/05 12:16:01;;;;;;;2.17;1.00;;;14.60;81.40;;;;;;5059197;28;20087;-85
2023/04/05 12:18:30;;;;;;;2.80;1.10;;;14.70;78.50;;;;;;5057684;28;20033;-83
2023/04/05 12:20:56;;;;;;;2.92;1.20;;;14.60;78.20;;;;;;5062872;28;20133;-83
2023/04/05 12:23:22;;;;;;;2.53;1.00;;;14.80;82.60;;;;;;5066901;28;20103;-85
2023/04/05 12:25:49;;;;;;;1.35;0.85;;;14.60;73.90;;;;;;5062687;28;20033;-85
2023/04/05 12:28:15;;;;;;;2.60;1.05;;;14.60;78.60;;;;;;5068459;28;20052;-84
2023/04/05 12:30:50;;;;;;;2.35;0.90;;;14.40;78.70;;;;;;5075134;28;20036;-84
2023/04/05 12:33:26;;;;;;;2.22;1.20;;;14.40;79.30;;;;;;5075073;28;20527;-84
2023/04/05 12:35:52;;;;;;;3.15;1.00;;;14.30;73.40;;;;;;5073840;28;20057;-84
2023/04/05 12:38:18;;;;;;;1.75;1.00;;;14.40;71.00;;;;;;5074904;28;20397;-84
2023/04/05 12:40:44;;;;;;;2.08;0.98;;;14.40;77.10;;;;;;5074046;28;20055;-85
2023/04/05 12:43:10;;;;;;;1.80;0.90;;;14.70;77.80;;;;;;5074933;28;20048;-85
2023/04/05 12:45:40;;;;;;;2.80;1.15;;;14.80;75.60;;;;;;5075041;28;20046;-85
2023/04/05 12:48:11;;;;;;;3.38;1.40;;;14.90;78.50;;;;;;5075026;28;20048;-84
2023/04/05 12:50:42;;;;;;;1.63;0.98;;;15.10;77.00;;;;;;5074943;28;20137;-85
2023/04/05 12:53:14;;;;;;;1.73;0.80;;;15.30;76.80;;;;;;5073768;28;20046;-84
2023/04/05 12:55:46;;;;;;;2.22;0.90;;;15.30;75.80;;;;;;5074554;28;20051;-84
2023/04/05 12:58:13;;;;;;;1.95;0.95;;;15.30;77.40;;;;;;5074482;28;20055;-85